createdAt,value
2022-09-29T00:00:17.650Z,48.53
2022-09-29T00:02:44.613Z,48.36
2022-09-29T00:05:11.134Z,48.51
2022-09-29T00:07:37.629Z,48.63
2022-09-29T00:10:05.081Z,48.42
2022-09-29T00:12:32.156Z,48.45
2022-09-29T00:14:59.051Z,48.35
2022-09-29T00:17:26.045Z,48.36
2022-09-29T00:19:52.537Z,48.35
2022-09-29T00:22:19.200Z,48.54
2022-09-29T00:24:47.947Z,48.38
2022-09-29T00:27:15.976Z,48.40
2022-09-29T00:29:43.002Z,48.19
2022-09-29T00:32:10.195Z,48.41
2022-09-29T00:34:37.402Z,48.20
2022-09-29T00:37:04.918Z,48.23
2022-09-29T00:39:31.936Z,48.38
2022-09-29T00:41:59.023Z,48.32
2022-09-29T00:44:25.892Z,48.30
2022-09-29T00:47:05.480Z,48.05
2022-09-29T00:49:53.167Z,48.01
2022-09-29T00:52:25.872Z,48.04
2022-09-29T00:55:01.389Z,48.23
2022-09-29T00:57:37.688Z,48.01
2022-09-29T01:00:11.575Z,48.01
2022-09-29T01:02:43.801Z,48.01
2022-09-29T01:05:15.219Z,48.09
2022-09-29T01:07:44.226Z,48.08
2022-09-29T01:10:12.980Z,48.11
2022-09-29T01:12:39.995Z,47.96
2022-09-29T01:15:07.721Z,48.13
2022-09-29T01:17:34.715Z,48.02
2022-09-29T01:20:13.084Z,47.98
2022-09-29T01:23:08.647Z,47.93
2022-09-29T01:26:09.191Z,47.92
2022-09-29T01:28:44.996Z,47.90
2022-09-29T01:31:18.648Z,48.01
2022-09-29T01:33:54.830Z,47.96
2022-09-29T01:36:33.025Z,48.15
2022-09-29T01:39:11.160Z,47.97
2022-09-29T01:42:03.409Z,47.97
2022-09-29T01:44:48.830Z,47.92
2022-09-29T01:47:28.115Z,47.99
2022-09-29T01:50:06.741Z,48.06
2022-09-29T01:52:39.694Z,47.88
2022-09-29T01:55:10.694Z,47.99
2022-09-29T01:58:17.220Z,47.97
2022-09-29T02:00:53.572Z,47.84
2022-09-29T02:03:37.642Z,47.80
2022-09-29T02:06:11.644Z,47.74
2022-09-29T02:08:49.131Z,47.87
2022-09-29T02:11:17.587Z,47.98
2022-09-29T02:13:51.129Z,47.97
2022-09-29T02:16:23.631Z,47.85
2022-09-29T02:19:08.529Z,47.71
2022-09-29T02:21:35.468Z,47.84
2022-09-29T02:24:02.425Z,47.88
2022-09-29T02:26:34.408Z,47.85
2022-09-29T02:29:06.429Z,47.75
2022-09-29T02:31:34.347Z,47.80
2022-09-29T02:34:04.383Z,48.00
2022-09-29T02:36:43.310Z,47.84
2022-09-29T02:39:27.386Z,47.95
2022-09-29T02:42:21.659Z,47.77
2022-09-29T02:45:00.477Z,47.77
2022-09-29T02:47:58.804Z,47.67
2022-09-29T02:51:19.862Z,47.72
2022-09-29T02:54:08.119Z,47.63
2022-09-29T02:56:48.453Z,47.67
2022-09-29T02:59:27.896Z,47.72
2022-09-29T03:01:57.580Z,47.65
2022-09-29T03:04:26.954Z,47.85
2022-09-29T03:06:54.604Z,47.78
2022-09-29T03:09:21.593Z,47.91
2022-09-29T03:11:48.085Z,47.81
2022-09-29T03:14:15.167Z,47.83
2022-09-29T03:16:42.987Z,47.68
2022-09-29T03:19:09.547Z,47.80
2022-09-29T03:21:36.472Z,47.57
2022-09-29T03:24:03.595Z,47.55
2022-09-29T03:26:30.656Z,47.46
2022-09-29T03:28:57.228Z,47.56
2022-09-29T03:31:24.308Z,47.69
2022-09-29T03:33:51.405Z,47.47
2022-09-29T03:36:18.364Z,47.49
2022-09-29T03:38:47.046Z,47.56
2022-09-29T03:41:14.033Z,47.67
2022-09-29T03:43:40.955Z,47.71
2022-09-29T03:46:07.476Z,47.52
2022-09-29T03:48:35.298Z,47.48
2022-09-29T03:51:02.415Z,47.70
2022-09-29T03:53:28.942Z,47.46
2022-09-29T03:55:55.997Z,47.45
2022-09-29T03:58:22.993Z,47.57
2022-09-29T04:00:50.059Z,47.50
2022-09-29T04:03:17.127Z,47.30
2022-09-29T04:05:46.413Z,47.48
2022-09-29T04:08:13.384Z,47.42
2022-09-29T04:10:40.920Z,47.45
2022-09-29T04:13:08.781Z,47.39
2022-09-29T04:15:35.807Z,47.31
2022-09-29T04:18:02.834Z,47.44
2022-09-29T04:20:29.776Z,47.42
2022-09-29T04:22:56.722Z,47.73
2022-09-29T04:25:23.574Z,48.43
2022-09-29T04:27:50.550Z,48.79
2022-09-29T04:30:17.519Z,48.77
2022-09-29T04:32:45.031Z,48.76
2022-09-29T04:35:11.593Z,48.74
2022-09-29T04:37:38.656Z,48.83
2022-09-29T04:40:05.956Z,48.61
2022-09-29T04:42:33.217Z,48.66
2022-09-29T04:45:00.252Z,48.78
2022-09-29T04:47:27.546Z,48.76
2022-09-29T04:49:54.537Z,48.83
2022-09-29T04:52:21.457Z,49.08
2022-09-29T04:54:48.402Z,48.82
2022-09-29T04:57:15.417Z,48.84
2022-09-29T04:59:42.407Z,48.83
2022-09-29T05:02:09.427Z,49.04
2022-09-29T05:04:36.387Z,48.80
2022-09-29T05:07:03.509Z,48.84
2022-09-29T05:09:33.384Z,48.93
2022-09-29T05:12:01.296Z,48.79
2022-09-29T05:14:28.701Z,48.81
2022-09-29T05:16:56.275Z,48.79
2022-09-29T05:19:23.403Z,48.56
2022-09-29T05:21:50.041Z,48.71
2022-09-29T05:24:17.340Z,48.75
2022-09-29T05:26:44.282Z,48.66
2022-09-29T05:29:11.293Z,48.54
2022-09-29T05:31:38.441Z,48.62
2022-09-29T05:34:05.629Z,48.63
2022-09-29T05:36:32.580Z,48.61
2022-09-29T05:38:59.101Z,48.57
2022-09-29T05:41:26.159Z,48.62
2022-09-29T05:43:54.887Z,48.60
2022-09-29T05:46:22.632Z,48.47
2022-09-29T05:48:51.388Z,48.46
2022-09-29T05:51:23.078Z,48.46
2022-09-29T05:53:50.623Z,48.30
2022-09-29T05:56:28.079Z,48.28
2022-09-29T05:58:55.373Z,48.23
2022-09-29T06:01:24.551Z,47.91
2022-09-29T06:03:53.422Z,47.78
2022-09-29T06:06:23.141Z,47.64
2022-09-29T06:08:51.321Z,47.73
2022-09-29T06:11:27.480Z,47.80
2022-09-29T06:13:55.678Z,47.73
2022-09-29T06:16:24.833Z,47.68
2022-09-29T06:18:52.621Z,47.68
2022-09-29T06:21:23.696Z,47.42
2022-09-29T06:23:51.668Z,47.41
2022-09-29T06:26:23.690Z,47.58
2022-09-29T06:28:51.472Z,47.63
2022-09-29T06:31:20.935Z,47.60
2022-09-29T06:33:47.660Z,47.52
2022-09-29T06:36:43.203Z,47.56
2022-09-29T06:39:12.607Z,47.47
2022-09-29T06:41:39.648Z,47.43
2022-09-29T06:44:06.128Z,47.57
2022-09-29T06:46:33.076Z,47.36
2022-09-29T06:48:59.618Z,47.20
2022-09-29T06:51:36.808Z,47.36
2022-09-29T06:54:11.971Z,47.32
2022-09-29T06:56:39.975Z,47.24
2022-09-29T06:59:06.932Z,47.10
2022-09-29T07:01:34.122Z,46.91
2022-09-29T07:04:02.301Z,47.01
2022-09-29T07:06:30.204Z,46.81
2022-09-29T07:08:58.854Z,46.77
2022-09-29T07:11:26.455Z,46.54
2022-09-29T07:13:54.835Z,46.49
2022-09-29T07:16:23.994Z,46.47
2022-09-29T07:18:52.333Z,46.32
2022-09-29T07:21:19.007Z,46.37
2022-09-29T07:23:47.865Z,46.01
2022-09-29T07:26:18.928Z,46.17
2022-09-29T07:28:46.817Z,46.13
2022-09-29T07:31:17.599Z,46.16
2022-09-29T07:33:46.160Z,46.06
2022-09-29T07:36:14.780Z,46.00
2022-09-29T07:38:41.812Z,46.08
2022-09-29T07:41:13.464Z,46.03
2022-09-29T07:43:40.544Z,46.29
2022-09-29T07:46:08.903Z,46.17
2022-09-29T07:48:37.415Z,46.08
2022-09-29T07:51:10.817Z,45.88
2022-09-29T07:53:37.642Z,46.19
2022-09-29T07:56:12.922Z,45.93
2022-09-29T07:58:40.726Z,46.25
2022-09-29T08:01:10.760Z,46.15
2022-09-29T08:03:41.809Z,46.35
2022-09-29T08:06:09.983Z,46.52
2022-09-29T08:08:41.402Z,46.38
2022-09-29T08:11:21.861Z,46.56
2022-09-29T08:13:53.381Z,46.54
2022-09-29T08:16:20.939Z,46.69
2022-09-29T08:18:47.568Z,46.58
2022-09-29T08:21:15.260Z,46.50
2022-09-29T08:23:43.746Z,46.50
2022-09-29T08:26:14.107Z,46.37
2022-09-29T08:28:41.700Z,46.59
2022-09-29T08:31:15.225Z,46.16
2022-09-29T08:33:42.158Z,46.42
2022-09-29T08:36:15.651Z,46.32
2022-09-29T08:38:47.268Z,46.19
2022-09-29T08:41:34.075Z,45.90
2022-09-29T08:44:34.119Z,46.04
2022-09-29T08:47:21.963Z,46.10
2022-09-29T08:49:55.530Z,46.19
2022-09-29T08:52:29.600Z,45.98
2022-09-29T08:55:16.274Z,45.98
2022-09-29T08:57:51.755Z,45.75
2022-09-29T09:00:20.702Z,45.84
2022-09-29T09:03:09.140Z,45.38
2022-09-29T09:05:44.708Z,45.48
2022-09-29T09:08:32.841Z,45.47
2022-09-29T09:11:10.680Z,45.00
2022-09-29T09:13:58.155Z,45.03
2022-09-29T09:16:48.698Z,45.01
2022-09-29T09:19:42.154Z,44.69
2022-09-29T09:22:21.652Z,45.00
2022-09-29T09:25:04.180Z,44.30
2022-09-29T09:27:41.053Z,44.60
2022-09-29T09:30:14.699Z,44.74
2022-09-29T09:33:02.805Z,44.67
2022-09-29T09:35:54.430Z,44.78
2022-09-29T09:38:34.417Z,44.92
2022-09-29T09:41:02.360Z,45.16
2022-09-29T09:43:29.304Z,45.55
2022-09-29T09:46:23.951Z,44.99
2022-09-29T09:49:03.209Z,45.22
2022-09-29T09:51:56.253Z,45.10
2022-09-29T09:54:33.917Z,45.43
2022-09-29T09:57:40.271Z,45.29
2022-09-29T10:00:13.960Z,45.78
2022-09-29T10:02:45.951Z,45.83
2022-09-29T10:05:15.162Z,46.19
2022-09-29T10:07:42.793Z,46.14
2022-09-29T10:10:22.671Z,46.19
2022-09-29T10:13:02.163Z,45.95
2022-09-29T10:15:35.384Z,46.16
2022-09-29T10:18:14.391Z,46.00
2022-09-29T10:20:44.385Z,46.36
2022-09-29T10:23:34.115Z,46.23
2022-09-29T10:26:12.896Z,46.31
2022-09-29T10:28:55.395Z,46.41
2022-09-29T10:31:28.835Z,46.49
2022-09-29T10:34:15.525Z,46.45
2022-09-29T10:36:58.597Z,46.49
2022-09-29T10:39:43.730Z,46.42
2022-09-29T10:42:27.278Z,46.56
2022-09-29T10:45:02.948Z,46.72
2022-09-29T10:47:29.956Z,46.75
2022-09-29T10:50:14.963Z,46.65
2022-09-29T10:52:57.309Z,46.63
2022-09-29T10:55:26.886Z,46.95
2022-09-29T10:57:57.003Z,46.88
2022-09-29T11:00:39.896Z,46.94
2022-09-29T11:03:27.643Z,47.01
2022-09-29T11:06:04.417Z,47.04
2022-09-29T11:08:31.471Z,47.08
2022-09-29T11:11:04.156Z,47.15
2022-09-29T11:13:42.084Z,47.18
2022-09-29T11:16:18.174Z,47.20
2022-09-29T11:18:51.388Z,47.34
2022-09-29T11:21:47.146Z,47.52
2022-09-29T11:24:32.543Z,47.58
2022-09-29T11:27:32.752Z,47.77
2022-09-29T11:30:15.617Z,47.84
2022-09-29T11:33:05.123Z,47.94
2022-09-29T11:35:46.194Z,47.96
2022-09-29T11:38:50.567Z,48.03
2022-09-29T11:41:47.151Z,48.08
2022-09-29T11:44:14.045Z,48.19
2022-09-29T11:47:21.749Z,48.20
2022-09-29T11:50:14.190Z,48.10
2022-09-29T11:53:11.960Z,48.19
2022-09-29T11:55:47.929Z,48.38
2022-09-29T11:58:20.247Z,48.35
2022-09-29T12:00:55.417Z,48.42
2022-09-29T12:03:31.725Z,48.42
2022-09-29T12:06:24.052Z,48.39
2022-09-29T12:08:56.939Z,48.58
2022-09-29T12:12:22.994Z,48.50
2022-09-29T12:15:21.542Z,48.45
2022-09-29T12:17:54.098Z,48.44
2022-09-29T12:20:46.574Z,48.45
2022-09-29T12:23:16.184Z,48.40
2022-09-29T12:25:53.429Z,48.33
2022-09-29T12:28:24.811Z,48.42
2022-09-29T12:30:57.562Z,48.55
2022-09-29T12:33:38.493Z,48.61
2022-09-29T12:36:43.500Z,48.65
2022-09-29T12:39:48.009Z,48.86
2022-09-29T12:42:21.251Z,48.71
2022-09-29T12:45:25.271Z,48.87
2022-09-29T12:47:58.030Z,48.81
2022-09-29T12:50:46.567Z,48.82
2022-09-29T12:53:25.446Z,48.68
2022-09-29T12:56:02.805Z,48.94
2022-09-29T12:59:04.767Z,48.76
2022-09-29T13:01:35.103Z,48.73
2022-09-29T13:04:32.032Z,48.82
2022-09-29T13:07:10.504Z,48.69
2022-09-29T13:10:14.123Z,48.75
2022-09-29T13:12:52.841Z,48.72
2022-09-29T13:15:46.446Z,48.81
2022-09-29T13:18:24.834Z,48.79
2022-09-29T13:21:21.933Z,48.88
2022-09-29T13:24:17.057Z,48.80
2022-09-29T13:27:08.354Z,48.93
2022-09-29T13:29:46.637Z,48.88
2022-09-29T13:32:14.082Z,48.64
2022-09-29T13:34:48.817Z,48.74
2022-09-29T13:37:19.014Z,48.66
2022-09-29T13:40:06.626Z,48.76
2022-09-29T13:42:44.336Z,48.96
2022-09-29T13:45:36.337Z,48.98
2022-09-29T13:48:31.886Z,48.79
2022-09-29T13:51:05.088Z,48.88
2022-09-29T13:53:36.369Z,48.76
2022-09-29T13:56:02.787Z,48.92
2022-09-29T13:58:39.720Z,49.08
2022-09-29T14:01:09.183Z,48.83
2022-09-29T14:03:38.048Z,48.75
2022-09-29T14:06:39.655Z,49.05
2022-09-29T14:09:13.175Z,49.04
2022-09-29T14:11:55.543Z,49.18
2022-09-29T14:14:32.352Z,48.97
2022-09-29T14:17:08.755Z,49.05
2022-09-29T14:19:41.912Z,49.08
2022-09-29T14:22:37.689Z,48.99
2022-09-29T14:25:13.808Z,49.17
2022-09-29T14:28:02.021Z,49.23
2022-09-29T14:30:37.347Z,49.10
2022-09-29T14:33:20.045Z,49.29
2022-09-29T14:36:01.531Z,49.07
2022-09-29T14:38:32.900Z,49.28
2022-09-29T14:41:08.291Z,49.32
2022-09-29T14:43:47.471Z,49.40
2022-09-29T14:47:03.708Z,49.38
2022-09-29T14:50:14.039Z,49.46
2022-09-29T14:53:03.123Z,49.17
2022-09-29T14:55:54.627Z,49.31
2022-09-29T14:58:39.107Z,49.35
2022-09-29T15:01:28.630Z,49.51
2022-09-29T15:04:16.573Z,49.42
2022-09-29T15:06:52.659Z,49.75
2022-09-29T15:09:25.254Z,49.64
2022-09-29T15:12:04.351Z,49.68
2022-09-29T15:14:39.440Z,49.60
2022-09-29T15:17:25.597Z,49.57
2022-09-29T15:20:18.923Z,49.92
2022-09-29T15:23:04.024Z,49.49
2022-09-29T15:25:34.632Z,49.50
2022-09-29T15:28:35.978Z,49.87
2022-09-29T15:31:05.727Z,49.80
2022-09-29T15:33:36.937Z,49.59
2022-09-29T15:36:06.879Z,49.69
2022-09-29T15:38:36.377Z,49.76
2022-09-29T15:41:16.825Z,49.68
2022-09-29T15:44:01.516Z,49.80
2022-09-29T15:46:37.191Z,49.79
2022-09-29T15:49:22.099Z,49.96
2022-09-29T15:52:00.288Z,49.79
2022-09-29T15:54:33.587Z,49.61
2022-09-29T15:57:19.690Z,49.64
2022-09-29T15:59:51.703Z,49.33
2022-09-29T16:02:41.959Z,49.73
2022-09-29T16:05:18.114Z,49.58
2022-09-29T16:07:49.374Z,49.49
2022-09-29T16:10:18.258Z,49.22
2022-09-29T16:12:58.601Z,49.45
2022-09-29T16:15:33.493Z,49.73
2022-09-29T16:18:16.946Z,50.47
2022-09-29T16:20:44.886Z,50.60
2022-09-29T16:23:26.119Z,50.57
2022-09-29T16:26:15.236Z,50.00
2022-09-29T16:29:05.141Z,50.08
2022-09-29T16:31:32.603Z,49.96
2022-09-29T16:34:00.669Z,49.76
2022-09-29T16:36:34.394Z,49.82
2022-09-29T16:39:02.092Z,49.89
2022-09-29T16:41:37.899Z,50.00
2022-09-29T16:44:18.428Z,49.82
2022-09-29T16:47:41.132Z,49.93
2022-09-29T16:50:14.379Z,50.04
2022-09-29T16:52:50.677Z,49.62
2022-09-29T16:58:15.094Z,49.56
2022-09-29T17:00:41.738Z,49.82
2022-09-29T17:03:09.731Z,49.79
2022-09-29T17:05:43.465Z,49.50
2022-09-29T17:08:23.505Z,49.90
2022-09-29T17:10:55.534Z,49.75
2022-09-29T17:13:23.776Z,49.43
2022-09-29T17:15:53.870Z,49.39
2022-09-29T17:18:23.148Z,49.40
2022-09-29T17:20:49.631Z,49.44
2022-09-29T17:23:16.185Z,49.47
2022-09-29T17:25:46.670Z,49.66
2022-09-29T17:28:26.139Z,49.43
2022-09-29T17:30:55.446Z,49.38
2022-09-29T17:33:22.174Z,49.22
2022-09-29T17:35:55.203Z,49.35
2022-09-29T17:38:23.851Z,49.36
2022-09-29T17:40:56.161Z,49.42
2022-09-29T17:43:24.329Z,49.48
2022-09-29T17:45:54.415Z,49.46
2022-09-29T17:48:20.986Z,49.34
2022-09-29T17:50:54.861Z,49.49
2022-09-29T17:53:21.353Z,49.19
2022-09-29T17:55:50.647Z,49.17
2022-09-29T17:58:19.235Z,49.25
2022-09-29T18:00:50.772Z,49.03
2022-09-29T18:03:19.857Z,49.43
2022-09-29T18:05:58.645Z,49.43
2022-09-29T18:08:27.456Z,48.90
2022-09-29T18:10:56.389Z,49.10
2022-09-29T18:13:24.931Z,49.16
2022-09-29T18:15:51.474Z,49.39
2022-09-29T18:18:20.749Z,49.15
2022-09-29T18:20:49.757Z,49.19
2022-09-29T18:23:17.779Z,49.26
2022-09-29T18:25:47.892Z,49.09
2022-09-29T18:28:16.139Z,49.21
2022-09-29T18:30:52.290Z,49.13
2022-09-29T18:33:20.382Z,48.98
2022-09-29T18:35:52.647Z,49.17
2022-09-29T18:38:19.128Z,48.93
2022-09-29T18:40:47.244Z,49.20
2022-09-29T18:43:14.703Z,48.80
2022-09-29T18:45:43.636Z,49.07
2022-09-29T18:48:14.981Z,48.94
2022-09-29T18:50:46.471Z,48.97
2022-09-29T18:53:17.816Z,48.81
2022-09-29T18:55:44.332Z,48.90
2022-09-29T18:58:16.363Z,48.91
2022-09-29T19:00:46.341Z,48.97
2022-09-29T19:03:12.887Z,48.93
2022-09-29T19:05:42.281Z,48.94
2022-09-29T19:08:11.827Z,48.74
2022-09-29T19:10:41.277Z,48.71
2022-09-29T19:13:13.706Z,48.90
2022-09-29T19:15:42.560Z,48.84
2022-09-29T19:18:13.939Z,48.85
2022-09-29T19:20:40.499Z,48.78
2022-09-29T19:23:08.182Z,48.63
2022-09-29T19:25:37.263Z,48.59
2022-09-29T19:28:05.583Z,49.04
2022-09-29T19:30:39.284Z,48.52
2022-09-29T19:33:08.541Z,48.60
2022-09-29T19:35:36.359Z,48.90
2022-09-29T19:38:04.535Z,48.79
2022-09-29T19:40:37.570Z,48.84
2022-09-29T19:43:05.798Z,48.92
2022-09-29T19:45:39.435Z,48.84
2022-09-29T19:48:07.783Z,49.02
2022-09-29T19:50:53.668Z,48.81
2022-09-29T19:53:20.295Z,48.69
2022-09-29T19:55:47.269Z,48.81
2022-09-29T19:58:13.823Z,48.73
2022-09-29T20:00:40.878Z,48.87
2022-09-29T20:03:09.270Z,48.66
2022-09-29T20:05:36.861Z,48.44
2022-09-29T20:08:03.954Z,48.57
2022-09-29T20:10:30.570Z,48.62
2022-09-29T20:12:57.998Z,48.71
2022-09-29T20:15:24.871Z,48.66
2022-09-29T20:17:52.142Z,48.45
2022-09-29T20:20:19.388Z,48.69
2022-09-29T20:22:45.883Z,48.73
2022-09-29T20:25:12.614Z,48.50
2022-09-29T20:27:40.500Z,48.46
2022-09-29T20:30:07.800Z,48.47
2022-09-29T20:32:34.350Z,48.47
2022-09-29T20:35:01.056Z,48.53
2022-09-29T20:37:30.359Z,48.48
2022-09-29T20:39:57.871Z,48.26
2022-09-29T20:42:24.814Z,48.42
2022-09-29T20:44:56.218Z,48.42
2022-09-29T20:47:26.736Z,48.65
2022-09-29T20:49:55.178Z,48.32
2022-09-29T20:52:25.772Z,48.54
2022-09-29T20:54:52.272Z,48.39
2022-09-29T20:57:18.778Z,48.72
2022-09-29T20:59:45.426Z,48.35
2022-09-29T21:02:13.393Z,48.47
2022-09-29T21:04:42.361Z,48.51
2022-09-29T21:07:28.872Z,48.62
2022-09-29T21:09:55.415Z,48.24
2022-09-29T21:12:21.896Z,48.38
2022-09-29T21:14:48.363Z,48.49
2022-09-29T21:17:14.904Z,48.32
2022-09-29T21:19:41.433Z,48.62
2022-09-29T21:22:08.963Z,48.57
2022-09-29T21:24:39.053Z,48.38
2022-09-29T21:27:06.695Z,48.49
2022-09-29T21:29:33.737Z,48.25
2022-09-29T21:32:00.479Z,48.26
2022-09-29T21:34:27.104Z,48.22
2022-09-29T21:36:53.596Z,48.15
2022-09-29T21:39:20.831Z,48.29
2022-09-29T21:41:47.853Z,48.02
2022-09-29T21:44:17.832Z,48.09
2022-09-29T21:46:45.680Z,48.31
2022-09-29T21:49:14.644Z,48.32
2022-09-29T21:51:44.235Z,48.40
2022-09-29T21:54:13.662Z,48.47
2022-09-29T21:56:42.023Z,48.39
2022-09-29T21:59:10.320Z,48.50
2022-09-29T22:01:39.850Z,48.45
2022-09-29T22:04:07.459Z,48.35
2022-09-29T22:06:35.963Z,48.26
2022-09-29T22:09:03.721Z,48.52
2022-09-29T22:11:33.204Z,48.21
2022-09-29T22:14:00.896Z,48.44
2022-09-29T22:16:30.657Z,48.48
2022-09-29T22:19:22.453Z,48.15
2022-09-29T22:21:45.770Z,48.37
2022-09-29T22:24:12.716Z,48.54
2022-09-29T22:26:41.066Z,48.51
2022-09-29T22:29:07.947Z,48.31
2022-09-29T22:31:35.203Z,48.40
2022-09-29T22:34:04.502Z,48.29
2022-09-29T22:36:33.038Z,48.25
2022-09-29T22:39:00.371Z,48.43
2022-09-29T22:41:26.866Z,48.25
2022-09-29T22:43:55.266Z,48.36
2022-09-29T22:46:22.833Z,48.30
2022-09-29T22:48:49.843Z,48.35
2022-09-29T22:51:16.811Z,48.44
2022-09-29T22:53:43.327Z,48.37
2022-09-29T22:56:16.528Z,48.30
2022-09-29T22:58:43.239Z,48.47
2022-09-29T23:01:15.341Z,48.27
2022-09-29T23:03:44.083Z,48.41
2022-09-29T23:06:11.271Z,48.36
2022-09-29T23:08:38.540Z,48.31
2022-09-29T23:11:07.921Z,48.25
2022-09-29T23:13:37.584Z,48.30
2022-09-29T23:16:14.944Z,48.38
2022-09-29T23:18:44.972Z,48.29
2022-09-29T23:21:21.539Z,48.55
2022-09-29T23:23:53.697Z,48.62
2022-09-29T23:26:20.386Z,48.53
2022-09-29T23:28:48.171Z,48.43
2022-09-29T23:31:15.245Z,48.30
2022-09-29T23:33:41.831Z,48.18
2022-09-29T23:36:10.792Z,48.18
2022-09-29T23:39:00.739Z,48.05
2022-09-29T23:41:29.731Z,48.25
2022-09-29T23:43:58.326Z,48.31
2022-09-29T23:46:27.520Z,48.17
2022-09-29T23:48:54.126Z,48.22
2022-09-29T23:51:20.668Z,48.26
2022-09-29T23:53:47.213Z,48.32
2022-09-29T23:56:13.770Z,48.09
2022-09-29T23:58:40.268Z,48.16
